Time;durP1;ratioP1;P1;durP2;ratioP2;P2;SDS_P1;SDS_P2;PMS_P1;PMS_P2;Temp;Humidity;BMP_temperature;BMP_pressure;BME280_temperature;BME280_humidity;BME280_pressure;Samples;Min_cycle;Max_cycle;Signal;HPM_P1;HPM_P2
2021/07/03 00:00:50;;;;;;;49.27;22.47;;;;;;;12.31;100.00;101902.00;4993589;28;20092;-60
2021/07/03 00:03:15;;;;;;;40.25;20.55;;;;;;;12.39;100.00;101897.22;4984632;28;20288;-59
2021/07/03 00:05:41;;;;;;;48.60;22.23;;;;;;;12.47;100.00;101894.22;4988441;28;20014;-60
2021/07/03 00:08:06;;;;;;;41.78;21.45;;;;;;;12.49;100.00;101895.88;4999313;28;20022;-61
2021/07/03 00:10:31;;;;;;;36.15;18.30;;;;;;;12.55;100.00;101888.56;4985769;28;20081;-60
2021/07/03 00:12:57;;;;;;;50.33;22.42;;;;;;;12.58;100.00;101885.72;4985567;28;20381;-61
2021/07/03 00:15:23;;;;;;;54.40;25.58;;;;;;;12.65;100.00;101888.09;4989904;28;20038;-61
2021/07/03 00:17:51;;;;;;;48.17;23.35;;;;;;;12.70;100.00;101884.34;4992626;28;20137;-60
2021/07/03 00:20:16;;;;;;;47.63;22.70;;;;;;;12.71;100.00;101889.66;4992586;28;20030;-59
2021/07/03 00:22:42;;;;;;;51.88;22.65;;;;;;;12.75;100.00;101883.22;4993396;28;20784;-60
2021/07/03 00:25:08;;;;;;;49.65;23.42;;;;;;;12.77;100.00;101876.00;4993393;28;20028;-61
2021/07/03 00:27:33;;;;;;;40.58;20.70;;;;;;;12.79;100.00;101875.91;4984851;28;20022;-60
2021/07/03 00:29:58;;;;;;;44.08;21.08;;;;;;;12.70;100.00;101877.19;4988910;28;20030;-60
2021/07/03 00:32:24;;;;;;;51.75;24.45;;;;;;;12.74;100.00;101881.47;4987401;28;20543;-61
2021/07/03 00:34:49;;;;;;;45.67;21.33;;;;;;;12.75;100.00;101879.69;4987229;28;20107;-61
2021/07/03 00:37:15;;;;;;;40.35;19.08;;;;;;;12.71;100.00;101878.94;4986657;28;20421;-61
2021/07/03 00:39:41;;;;;;;36.13;18.85;;;;;;;12.69;100.00;101883.47;4986117;28;20504;-61
2021/07/03 00:42:07;;;;;;;49.03;22.38;;;;;;;12.71;100.00;101878.94;4992402;28;20030;-60
2021/07/03 00:44:34;;;;;;;48.67;21.90;;;;;;;12.68;100.00;101881.72;4987213;28;20229;-60
2021/07/03 00:47:00;;;;;;;49.47;23.63;;;;;;;12.72;100.00;101880.66;4987424;28;20053;-60
2021/07/03 00:49:26;;;;;;;47.40;23.03;;;;;;;12.71;100.00;101876.25;4985891;28;20307;-62
2021/07/03 00:51:51;;;;;;;46.70;22.40;;;;;;;12.72;100.00;101872.63;4986343;28;20276;-59
2021/07/03 00:54:17;;;;;;;47.35;23.25;;;;;;;12.68;100.00;101862.13;4987592;28;20045;-61
2021/07/03 00:56:42;;;;;;;40.88;19.33;;;;;;;12.62;100.00;101876.66;4989220;28;20330;-61
2021/07/03 00:59:07;;;;;;;41.90;21.38;;;;;;;12.63;100.00;101868.53;4993368;28;20038;-60
2021/07/03 01:01:33;;;;;;;55.22;25.73;;;;;;;12.64;100.00;101870.28;4977644;28;20109;-60
2021/07/03 01:03:58;;;;;;;57.10;26.55;;;;;;;12.66;100.00;101872.88;4993674;28;20059;-61
2021/07/03 01:06:24;;;;;;;48.88;23.08;;;;;;;12.68;100.00;101875.53;4980866;28;20565;-60
2021/07/03 01:08:50;;;;;;;66.50;28.87;;;;;;;12.72;100.00;101872.63;4990860;28;20132;-60
2021/07/03 01:11:28;;;;;;;52.67;24.02;;;;;;;12.74;100.00;101870.75;4990422;28;20289;-60
2021/07/03 01:13:54;;;;;;;49.93;24.20;;;;;;;12.72;100.00;101871.75;4980114;28;20044;-61
2021/07/03 01:16:20;;;;;;;47.28;22.02;;;;;;;12.68;100.00;101880.88;4997398;28;20292;-60
2021/07/03 01:18:46;;;;;;;42.78;21.75;;;;;;;12.63;100.00;101868.53;4985119;28;20108;-60
2021/07/03 01:21:15;;;;;;;51.65;24.35;;;;;;;12.68;100.00;101876.38;4993546;28;20376;-60
2021/07/03 01:23:40;;;;;;;46.40;22.37;;;;;;;12.68;100.00;101868.34;4995946;28;20528;-61
2021/07/03 01:26:05;;;;;;;58.15;26.77;;;;;;;12.66;100.00;101868.44;4989944;28;20288;-59
2021/07/03 01:28:31;;;;;;;50.45;24.45;;;;;;;12.71;100.00;101870.91;4996868;28;20120;-61
2021/07/03 01:30:56;;;;;;;49.10;23.38;;;;;;;12.69;100.00;101869.19;4985255;28;20029;-60
2021/07/03 01:33:21;;;;;;;46.20;21.75;;;;;;;12.70;100.00;101863.81;4998787;28;20052;-60
2021/07/03 01:35:47;;;;;;;41.45;20.83;;;;;;;12.71;100.00;101862.88;4988267;28;20054;-60
2021/07/03 01:38:20;;;;;;;50.95;22.92;;;;;;;12.72;100.00;101861.91;5002217;28;20140;-60
2021/07/03 01:40:46;;;;;;;43.53;21.07;;;;;;;12.69;100.00;101854.03;4992598;28;20514;-60
2021/07/03 01:43:12;;;;;;;53.30;24.45;;;;;;;12.73;100.00;101854.75;4991721;28;20285;-60
2021/07/03 01:45:37;;;;;;;50.53;22.98;;;;;;;12.72;100.00;101856.56;4985413;28;20057;-61
2021/07/03 01:48:03;;;;;;;54.95;23.90;;;;;;;12.73;100.00;101862.81;4994156;28;20140;-60
2021/07/03 01:50:28;;;;;;;60.83;27.52;;;;;;;12.74;100.00;101845.81;4993550;28;21164;-60
2021/07/03 01:52:54;;;;;;;62.10;27.80;;;;;;;12.81;100.00;101840.09;4990897;28;20033;-60
2021/07/03 01:55:19;;;;;;;54.85;25.13;;;;;;;12.85;100.00;101839.97;4993269;28;20030;-60
2021/07/03 01:57:44;;;;;;;67.70;27.40;;;;;;;12.87;100.00;101851.50;4991266;28;20372;-60
2021/07/03 02:00:11;;;;;;;53.80;24.75;;;;;;;12.91;100.00;101845.06;4993100;28;20025;-60
2021/07/03 02:02:42;;;;;;;53.88;25.38;;;;;;;12.94;100.00;101834.22;4994699;28;20026;-60
2021/07/03 02:05:08;;;;;;;63.07;27.80;;;;;;;13.00;100.00;101836.63;4992801;28;20117;-60
2021/07/03 02:07:33;;;;;;;55.10;25.98;;;;;;;13.02;100.00;101837.41;4996428;28;20820;-61
2021/07/03 02:09:58;;;;;;;62.33;25.55;;;;;;;13.07;100.00;101832.72;4994245;28;20603;-61
2021/07/03 02:12:24;;;;;;;58.83;25.92;;;;;;;13.07;100.00;101824.69;4993168;28;20034;-58
2021/07/03 02:14:49;;;;;;;60.72;27.67;;;;;;;13.09;100.00;101817.44;4991081;28;20180;-60
2021/07/03 02:17:15;;;;;;;66.18;29.05;;;;;;;13.15;100.00;101821.63;4995931;28;20057;-59
2021/07/03 02:19:40;;;;;;;63.92;29.15;;;;;;;13.18;100.00;101817.97;4986946;28;20032;-60
2021/07/03 02:22:05;;;;;;;64.60;27.13;;;;;;;13.21;100.00;101815.13;4993180;28;20057;-60
2021/07/03 02:24:32;;;;;;;66.43;30.95;;;;;;;13.23;100.00;101813.25;4992789;28;20022;-60
2021/07/03 02:26:57;;;;;;;71.80;31.63;;;;;;;13.24;100.00;101806.97;4986980;28;20408;-61
2021/07/03 02:29:22;;;;;;;67.20;28.92;;;;;;;13.29;100.00;101812.97;4994642;28;20060;-60
2021/07/03 02:31:48;;;;;;;63.13;28.50;;;;;;;13.33;100.00;101811.03;4989601;28;20022;-60
2021/07/03 02:34:13;;;;;;;75.03;31.90;;;;;;;13.30;100.00;101804.84;4999271;28;20031;-60
2021/07/03 02:36:38;;;;;;;74.18;33.50;;;;;;;13.33;100.00;101802.97;4995712;28;20404;-61
2021/07/03 02:39:04;;;;;;;66.90;28.98;;;;;;;13.38;100.00;101807.22;4993139;28;20126;-61
2021/07/03 02:41:30;;;;;;;67.53;29.70;;;;;;;13.43;100.00;101807.00;4985884;28;20638;-61
2021/07/03 02:43:58;;;;;;;66.07;30.80;;;;;;;13.42;100.00;101808.81;4990665;28;20026;-60
2021/07/03 02:46:24;;;;;;;75.17;31.73;;;;;;;13.40;100.00;101804.47;4994626;28;20064;-61
2021/07/03 02:48:49;;;;;;;79.50;35.22;;;;;;;13.40;100.00;101804.47;4994546;28;20335;-61
2021/07/03 02:51:15;;;;;;;78.68;34.50;;;;;;;13.42;100.00;101803.44;4992341;28;20021;-61
2021/07/03 02:53:40;;;;;;;69.07;30.63;;;;;;;13.43;100.00;101809.69;4990471;28;20075;-61
2021/07/03 02:56:05;;;;;;;89.03;37.15;;;;;;;13.42;100.00;101800.75;4990670;28;20400;-60
2021/07/03 02:58:31;;;;;;;81.13;36.58;;;;;;;13.47;100.00;101799.69;4992981;28;20025;-61
2021/07/03 03:00:56;;;;;;;77.50;33.50;;;;;;;13.48;100.00;101788.03;4990686;28;20475;-60
2021/07/03 03:03:21;;;;;;;69.80;33.00;;;;;;;13.48;100.00;101802.28;4995373;28;20075;-60
2021/07/03 03:05:47;;;;;;;76.13;37.40;;;;;;;13.47;100.00;101788.97;4990633;28;20034;-61
2021/07/03 03:08:12;;;;;;;82.47;36.58;;;;;;;13.45;100.00;101794.38;4996421;28;20037;-60
2021/07/03 03:10:38;;;;;;;83.40;36.15;;;;;;;13.43;100.00;101794.47;4989469;28;20937;-60
2021/07/03 03:13:03;;;;;;;76.88;34.83;;;;;;;13.41;100.00;101790.13;4991875;28;20858;-61
2021/07/03 03:15:28;;;;;;;85.60;34.38;;;;;;;13.38;100.00;101787.53;4991487;28;20033;-61
2021/07/03 03:17:54;;;;;;;74.75;32.40;;;;;;;13.36;100.00;101790.31;4991804;28;20030;-61
2021/07/03 03:20:19;;;;;;;82.05;35.63;;;;;;;13.34;100.00;101784.13;4994223;28;20049;-61
2021/07/03 03:22:45;;;;;;;92.35;38.28;;;;;;;13.37;100.00;101792.03;4992436;28;21576;-59
2021/07/03 03:25:10;;;;;;;94.97;39.97;;;;;;;13.41;100.00;101788.31;4993750;28;20021;-60
2021/07/03 03:27:37;;;;;;;92.93;40.95;;;;;;;13.47;100.00;101783.59;4990385;28;20021;-61
2021/07/03 03:30:04;;;;;;;86.73;37.57;;;;;;;13.51;100.00;101779.81;4986039;28;20029;-61
2021/07/03 03:32:30;;;;;;;86.80;38.67;;;;;;;13.52;100.00;101782.47;4993730;28;20701;-60
2021/07/03 03:34:55;;;;;;;79.22;35.25;;;;;;;13.48;100.00;101780.00;4989668;28;20829;-60
2021/07/03 03:37:20;;;;;;;80.97;35.28;;;;;;;13.45;100.00;101781.88;4990713;28;20587;-59
2021/07/03 03:39:46;;;;;;;96.55;40.83;;;;;;;13.48;100.00;101780.00;4984625;28;20040;-60
2021/07/03 03:42:11;;;;;;;95.72;41.10;;;;;;;13.51;100.00;101785.19;4993443;28;20500;-60
2021/07/03 03:44:36;;;;;;;88.40;38.88;;;;;;;13.56;100.00;101780.50;4986612;28;20498;-60
2021/07/03 03:47:02;;;;;;;86.90;39.28;;;;;;;13.62;100.00;101788.25;4992174;28;20548;-60
2021/07/03 03:49:28;;;;;;;89.82;39.15;;;;;;;13.66;100.00;101780.91;4989714;28;20116;-60
2021/07/03 03:51:53;;;;;;;94.43;41.08;;;;;;;13.71;100.00;101782.44;4989587;28;20069;-60
2021/07/03 03:54:19;;;;;;;78.90;38.65;;;;;;;13.79;100.00;101781.19;4991273;28;20079;-61
2021/07/03 03:56:44;;;;;;;81.63;38.58;;;;;;;13.87;100.00;101785.22;4987927;28;20049;-60
2021/07/03 03:59:10;;;;;;;79.68;36.30;;;;;;;13.95;100.00;101783.97;4998490;28;20043;-61
2021/07/03 04:01:35;;;;;;;72.95;36.22;;;;;;;14.04;100.00;101784.38;4990562;28;20029;-61
2021/07/03 04:04:01;;;;;;;68.68;37.33;;;;;;;14.05;100.00;101780.75;4987294;28;20033;-62
2021/07/03 04:06:26;;;;;;;69.93;36.65;;;;;;;14.14;100.00;101786.59;4991270;28;20558;-61
2021/07/03 04:08:51;;;;;;;70.72;36.88;;;;;;;14.21;100.00;101782.66;4986504;28;20442;-61
2021/07/03 04:11:17;;;;;;;65.38;35.70;;;;;;;14.28;100.00;101783.22;4990369;28;20033;-60
2021/07/03 04:13:43;;;;;;;60.65;33.53;;;;;;;14.33;100.00;101778.47;4988246;28;20071;-60
2021/07/03 04:16:08;;;;;;;62.75;34.78;;;;;;;14.40;100.00;101783.47;4986102;28;20025;-60
2021/07/03 04:18:33;;;;;;;59.90;34.22;;;;;;;14.47;100.00;101775.94;4990840;28;20023;-61
2021/07/03 04:20:59;;;;;;;59.75;34.22;;;;;;;14.51;100.00;101782.03;4995235;28;20443;-61
2021/07/03 04:23:24;;;;;;;54.58;32.80;;;;;;;14.61;100.00;101772.53;4991191;28;20602;-61
2021/07/03 04:25:50;;;;;;;57.00;33.38;;;;;;;14.74;100.00;101771.91;4983671;28;20381;-61
2021/07/03 04:28:15;;;;;;;53.08;32.35;;;;;;;14.88;100.00;101770.25;4988902;28;20108;-60
2021/07/03 04:30:40;;;;;;;56.95;33.55;;;;;;;15.03;99.14;101773.91;4987346;28;20554;-60
2021/07/03 04:33:06;;;;;;;51.80;32.33;;;;;;;15.16;97.84;101767.88;4989628;28;20563;-61
2021/07/03 04:35:32;;;;;;;49.50;31.33;;;;;;;15.25;97.56;101772.72;4987787;28;20045;-60
2021/07/03 04:37:57;;;;;;;51.53;33.47;;;;;;;15.28;97.25;101775.25;4992419;28;20033;-61
2021/07/03 04:40:22;;;;;;;52.47;31.77;;;;;;;15.28;96.69;101777.94;4986267;28;20454;-60
2021/07/03 04:42:48;;;;;;;46.13;31.13;;;;;;;15.33;96.60;101777.69;4988350;28;20452;-60
2021/07/03 04:45:13;;;;;;;53.55;32.63;;;;;;;15.43;96.19;101772.66;4985671;28;20450;-60
2021/07/03 04:47:38;;;;;;;49.45;33.30;;;;;;;15.52;95.70;101764.91;4988284;28;20758;-61
2021/07/03 04:50:06;;;;;;;48.47;31.27;;;;;;;15.66;94.88;101766.84;4995114;28;20488;-61
2021/07/03 04:52:31;;;;;;;49.47;32.33;;;;;;;15.86;94.51;101772.06;4981943;28;20061;-60
2021/07/03 04:54:58;;;;;;;47.55;31.08;;;;;;;16.11;93.27;101772.38;4985955;28;20299;-60
2021/07/03 04:57:23;;;;;;;52.80;31.33;;;;;;;16.27;91.91;101766.91;4988623;28;20026;-62
2021/07/03 04:59:49;;;;;;;50.38;32.97;;;;;;;16.28;91.78;101767.81;4988464;28;20357;-60
2021/07/03 05:02:14;;;;;;;51.70;33.25;;;;;;;16.36;91.05;101754.72;4995475;28;20546;-61
2021/07/03 05:04:42;;;;;;;45.00;31.50;;;;;;;16.59;90.24;101761.41;4979980;28;20025;-60
2021/07/03 05:07:07;;;;;;;49.87;33.40;;;;;;;16.64;89.77;101746.78;4990774;28;20028;-61
2021/07/03 05:09:34;;;;;;;44.28;30.83;;;;;;;16.66;90.20;101752.94;4985821;28;20307;-60
2021/07/03 05:11:59;;;;;;;;;;;;;;;16.78;89.37;101750.34;4993965;28;20029;-60
2021/07/03 05:14:24;;;;;;;46.47;31.47;;;;;;;17.00;88.51;101753.56;4986658;28;20268;-60
2021/07/03 05:16:50;;;;;;;47.25;29.73;;;;;;;17.96;84.47;101760.88;4992759;28;20720;-61
2021/07/03 05:19:15;;;;;;;44.37;30.80;;;;;;;18.67;81.21;101756.88;4983481;28;20014;-61
2021/07/03 05:21:41;;;;;;;43.03;29.33;;;;;;;18.49;80.95;101758.19;4986323;28;20157;-60
2021/07/03 05:24:07;;;;;;;42.95;28.83;;;;;;;18.04;82.27;101758.53;4991182;28;20033;-60
2021/07/03 05:26:32;;;;;;;51.28;35.33;;;;;;;17.45;84.63;101751.59;4988768;28;20029;-61
2021/07/03 05:28:58;;;;;;;48.10;32.92;;;;;;;16.96;85.89;101752.03;4997255;28;20076;-60
2021/07/03 05:31:24;;;;;;;48.93;34.73;;;;;;;16.56;88.25;101761.59;4987308;28;20048;-60
2021/07/03 05:33:49;;;;;;;55.80;35.30;;;;;;;16.40;89.36;101756.28;4987099;28;20288;-61
2021/07/03 05:36:14;;;;;;;51.75;33.28;;;;;;;16.71;89.20;101753.50;4997085;28;20281;-59
2021/07/03 05:38:45;;;;;;;47.75;33.50;;;;;;;17.24;86.69;101757.38;4992269;28;20156;-60
2021/07/03 05:41:11;;;;;;;53.23;33.57;;;;;;;17.56;85.41;101746.34;4986798;28;20434;-61
2021/07/03 05:43:37;;;;;;;;;;;;;;;17.73;84.74;101752.44;4990177;28;20696;-61
2021/07/03 05:46:03;;;;;;;48.97;33.03;;;;;;;17.97;83.17;101752.66;4987318;28;19921;-61
2021/07/03 05:48:28;;;;;;;48.47;33.37;;;;;;;18.16;83.21;101744.19;4989336;28;20045;-62
2021/07/03 05:50:54;;;;;;;47.78;32.00;;;;;;;18.20;82.64;101742.13;4985662;28;20965;-61
2021/07/03 05:53:19;;;;;;;;;;;;;;;18.75;81.84;101744.66;4986350;28;20087;-61
2021/07/03 05:55:44;;;;;;;43.27;30.23;;;;;;;20.01;77.57;101739.16;4983241;28;19960;-62
2021/07/03 05:58:10;;;;;;;;;;;;;;;21.38;70.46;101735.59;4992241;28;20072;-61
2021/07/03 06:00:35;;;;;;;42.80;29.07;;;;;;;22.40;65.95;101745.22;4990108;28;19917;-62
2021/07/03 06:03:00;;;;;;;39.70;29.10;;;;;;;23.21;62.52;101742.66;4987187;28;20030;-61
2021/07/03 06:05:25;;;;;;;38.27;29.93;;;;;;;23.79;63.02;101735.56;4992719;28;20030;-61
2021/07/03 06:07:51;;;;;;;38.93;29.60;;;;;;;24.43;57.40;101733.25;4989323;28;20454;-61
2021/07/03 06:10:16;;;;;;;36.20;28.27;;;;;;;24.62;59.04;101732.34;4992218;28;20133;-62
2021/07/03 06:12:42;;;;;;;37.00;29.07;;;;;;;24.51;57.92;101737.97;4991831;28;20033;-62
2021/07/03 06:15:08;;;;;;;37.47;28.27;;;;;;;24.92;57.30;101726.78;5002859;28;20029;-61
2021/07/03 06:17:33;;;;;;;38.67;29.13;;;;;;;25.07;56.32;101729.91;4987326;28;20240;-61
2021/07/03 06:19:59;;;;;;;33.13;28.00;;;;;;;25.40;53.91;101725.72;4997620;28;20308;-61
2021/07/03 06:22:24;;;;;;;40.53;27.40;;;;;;;25.79;53.52;101723.69;4985409;28;20030;-61
2021/07/03 06:24:50;;;;;;;36.60;27.87;;;;;;;25.87;54.84;101715.56;4990472;28;20479;-61
2021/07/03 06:27:15;;;;;;;37.27;27.63;;;;;;;26.16;54.08;101722.66;4992018;28;20118;-61
2021/07/03 06:29:41;;;;;;;32.07;25.40;;;;;;;26.57;51.72;101717.50;4987863;28;20052;-61
2021/07/03 06:32:07;;;;;;;32.00;26.90;;;;;;;26.53;50.51;101718.81;4990934;28;20034;-61
2021/07/03 06:34:33;;;;;;;37.37;26.60;;;;;;;26.98;47.66;101717.72;4991971;28;20041;-62
2021/07/03 06:36:58;;;;;;;33.63;23.70;;;;;;;27.31;47.19;101728.78;4993228;28;20045;-61
2021/07/03 06:39:24;;;;;;;34.27;25.80;;;;;;;27.27;47.87;101729.28;4988169;28;20040;-62
2021/07/03 06:41:49;;;;;;;33.33;25.07;;;;;;;27.42;46.98;101726.81;4992371;28;20544;-61
2021/07/03 06:44:15;;;;;;;33.50;25.43;;;;;;;27.27;45.65;101726.53;4986944;28;20040;-61
2021/07/03 06:46:40;;;;;;;32.00;24.60;;;;;;;27.10;46.35;101717.44;4981908;28;20120;-62
2021/07/03 06:49:06;;;;;;;27.50;23.13;;;;;;;26.79;46.71;101723.44;4992660;28;20490;-61
2021/07/03 06:51:31;;;;;;;31.47;24.20;;;;;;;26.57;47.99;101717.50;4988271;28;20369;-62
2021/07/03 06:54:00;;;;;;;33.20;25.27;;;;;;;26.21;47.77;101712.97;4986533;28;20381;-62
2021/07/03 06:56:26;;;;;;;32.17;24.10;;;;;;;26.10;47.95;101724.16;4993008;28;20124;-62
2021/07/03 06:58:52;;;;;;;29.13;22.90;;;;;;;26.80;47.10;101725.19;4993635;28;20398;-62
2021/07/03 07:01:17;;;;;;;27.80;22.03;;;;;;;27.30;46.22;101716.09;4982229;28;20034;-62
2021/07/03 07:03:42;;;;;;;30.63;23.53;;;;;;;27.70;45.75;101719.13;4990540;28;20041;-62
2021/07/03 07:06:08;;;;;;;30.33;24.07;;;;;;;28.30;44.21;101718.97;4983469;28;20056;-62
2021/07/03 07:08:33;;;;;;;31.87;23.77;;;;;;;28.17;42.81;101723.13;4990032;28;20033;-62
2021/07/03 07:10:58;;;;;;;29.37;23.40;;;;;;;27.89;42.54;101717.94;4991391;28;20042;-62
2021/07/03 07:13:24;;;;;;;30.07;24.07;;;;;;;27.76;46.09;101717.59;4989713;28;20029;-62
2021/07/03 07:15:49;;;;;;;29.73;22.87;;;;;;;27.84;46.07;101709.38;4982888;28;20525;-62
2021/07/03 07:18:15;;;;;;;27.47;22.83;;;;;;;28.28;43.76;101717.25;4989108;28;20025;-62
2021/07/03 07:20:40;;;;;;;25.27;21.73;;;;;;;28.83;43.53;101712.00;4991791;28;20072;-62
2021/07/03 07:23:06;;;;;;;28.93;20.70;;;;;;;29.20;42.02;101715.09;4990987;28;20037;-62
2021/07/03 07:25:31;;;;;;;26.03;20.20;;;;;;;29.26;41.20;101716.28;4990160;28;20071;-61
2021/07/03 07:27:57;;;;;;;24.97;20.30;;;;;;;29.14;40.83;101711.19;4992197;28;20030;-61
2021/07/03 07:30:22;;;;;;;22.30;18.63;;;;;;;28.32;42.86;101716.94;4992280;28;20702;-61
2021/07/03 07:32:47;;;;;;;28.27;21.07;;;;;;;27.31;44.34;101715.09;4988998;28;20026;-62
2021/07/03 07:35:13;;;;;;;26.77;20.70;;;;;;;26.93;44.59;101703.66;4983033;28;20080;-62
2021/07/03 07:37:38;;;;;;;25.00;20.73;;;;;;;26.87;46.02;101707.06;4991391;28;20029;-61
2021/07/03 07:40:04;;;;;;;23.93;19.70;;;;;;;26.70;46.87;101712.44;4990398;28;20391;-62
2021/07/03 07:42:30;;;;;;;27.50;20.30;;;;;;;26.76;45.50;101710.06;4989374;28;20396;-62
2021/07/03 07:44:56;;;;;;;28.80;20.10;;;;;;;26.90;47.91;101708.63;4994492;28;20815;-61
2021/07/03 07:47:21;;;;;;;27.03;20.07;;;;;;;27.63;45.48;101713.47;4990481;28;20032;-62
2021/07/03 07:49:47;;;;;;;27.60;20.67;;;;;;;28.06;43.89;101705.13;4991910;28;20070;-61
2021/07/03 07:52:12;;;;;;;24.53;17.87;;;;;;;28.90;43.54;101699.28;4985974;28;20028;-62
2021/07/03 07:54:38;;;;;;;22.03;17.00;;;;;;;29.10;40.77;101701.59;4989755;28;20033;-59
2021/07/03 07:57:03;;;;;;;23.17;16.90;;;;;;;28.73;41.74;101698.50;4986716;28;20037;-59
2021/07/03 07:59:29;;;;;;;19.80;15.83;;;;;;;27.74;43.22;101703.22;4987517;28;20041;-58
2021/07/03 08:01:54;;;;;;;21.00;16.37;;;;;;;26.65;46.27;101689.28;4985944;28;20048;-59
2021/07/03 08:04:20;;;;;;;22.57;16.47;;;;;;;25.76;48.88;101695.66;4986596;28;20029;-59
2021/07/03 08:06:46;;;;;;;25.37;17.23;;;;;;;25.28;50.22;101689.53;4993252;28;20034;-58
2021/07/03 08:09:11;;;;;;;23.53;16.60;;;;;;;24.96;50.86;101685.41;4990497;28;20026;-58
2021/07/03 08:11:36;;;;;;;21.93;16.77;;;;;;;24.69;51.40;101683.50;4982426;28;20041;-59
2021/07/03 08:14:03;;;;;;;26.00;18.93;;;;;;;24.28;53.37;101678.31;4981549;28;20037;-58
2021/07/03 08:16:28;;;;;;;26.97;18.43;;;;;;;23.98;53.29;101684.84;4986419;28;20479;-57
2021/07/03 08:18:54;;;;;;;28.87;17.93;;;;;;;24.10;52.27;101686.41;4986217;28;20064;-58
2021/07/03 08:21:19;;;;;;;25.47;17.83;;;;;;;24.14;53.99;101690.53;4984890;28;20136;-57
2021/07/03 08:23:44;;;;;;;25.33;18.17;;;;;;;24.32;56.08;101687.06;4995083;28;20067;-58
2021/07/03 08:26:10;;;;;;;20.87;16.57;;;;;;;24.67;53.58;101680.09;4969403;28;20033;-59
2021/07/03 08:28:35;;;;;;;19.37;16.30;;;;;;;24.89;52.11;101675.25;4983631;28;20490;-60
2021/07/03 08:31:01;;;;;;;20.70;17.57;;;;;;;25.08;50.23;101683.31;4985182;28;22152;-59
2021/07/03 08:33:26;;;;;;;24.23;17.70;;;;;;;25.07;53.22;101676.13;4983094;28;20479;-59
2021/07/03 08:35:51;;;;;;;24.03;18.13;;;;;;;24.52;51.89;101671.50;4986834;28;20245;-60
2021/07/03 08:38:17;;;;;;;22.27;17.60;;;;;;;24.29;52.68;101677.31;4989248;28;20802;-59
2021/07/03 08:40:42;;;;;;;25.90;18.40;;;;;;;24.16;53.75;101676.78;4990443;28;20443;-59
2021/07/03 08:43:07;;;;;;;24.10;17.27;;;;;;;24.21;55.11;101679.06;4985750;28;20025;-58
2021/07/03 08:45:34;;;;;;;24.17;16.77;;;;;;;24.20;52.61;101689.09;4983517;28;20216;-58
2021/07/03 08:47:59;;;;;;;22.30;17.00;;;;;;;23.93;53.05;101687.09;4979559;28;20025;-59
2021/07/03 08:50:25;;;;;;;23.93;16.80;;;;;;;23.73;54.56;101680.78;4981154;28;20029;-60
2021/07/03 08:52:51;;;;;;;22.67;16.77;;;;;;;23.47;56.20;101682.22;4985664;28;20449;-59
2021/07/03 08:55:23;;;;;;;21.90;17.70;;;;;;;23.21;54.95;101674.59;4980755;28;20314;-58
2021/07/03 08:57:54;;;;;;;25.63;17.73;;;;;;;22.77;56.66;101674.00;4991855;28;20025;-59
2021/07/03 09:00:29;;;;;;;25.53;16.80;;;;;;;22.53;58.61;101675.19;4981798;28;20026;-59
2021/07/03 09:02:54;;;;;;;25.13;16.77;;;;;;;22.45;59.89;101672.31;4970110;28;26484;-57
2021/07/03 09:05:26;;;;;;;28.00;16.07;;;;;;;22.32;61.54;101666.16;4970879;28;20494;-58
2021/07/03 09:08:12;;;;;;;24.20;16.87;;;;;;;22.17;61.21;101662.97;5009076;28;20111;-59
2021/07/03 09:10:39;;;;;;;23.03;16.57;;;;;;;22.04;60.61;101664.00;5005285;28;20380;-59
2021/07/03 09:13:06;;;;;;;28.47;17.67;;;;;;;21.87;63.66;101665.47;4997369;28;22333;-57
2021/07/03 09:15:34;;;;;;;20.57;16.10;;;;;;;21.79;62.60;101659.81;5005836;28;20117;-57
2021/07/03 09:18:07;;;;;;;22.23;16.07;;;;;;;21.65;62.69;101667.31;5004143;28;20041;-57
2021/07/03 09:20:34;;;;;;;21.53;15.53;;;;;;;21.76;63.13;101657.38;5008768;28;20112;-58
2021/07/03 09:23:14;;;;;;;21.33;14.43;;;;;;;21.94;60.77;101655.78;5002545;28;20844;-58
2021/07/03 09:25:50;;;;;;;22.30;14.53;;;;;;;22.36;61.26;101660.34;5001024;28;20462;-58
2021/07/03 09:28:18;;;;;;;19.10;15.43;;;;;;;22.77;61.40;101657.69;5002128;28;20068;-58
2021/07/03 09:30:45;;;;;;;22.53;15.43;;;;;;;23.12;57.86;101658.19;5002137;28;20033;-59
2021/07/03 09:33:16;;;;;;;17.03;14.37;;;;;;;23.24;57.33;101654.41;4992955;28;20114;-59
2021/07/03 09:35:42;;;;;;;22.07;15.03;;;;;;;23.13;57.07;101660.81;5003256;28;20065;-58
2021/07/03 09:38:08;;;;;;;21.73;15.40;;;;;;;23.02;58.08;101663.63;5004225;28;20518;-58
2021/07/03 09:40:35;;;;;;;21.43;15.27;;;;;;;23.01;58.37;101664.63;5006170;28;20111;-58
2021/07/03 09:43:06;;;;;;;23.43;15.00;;;;;;;23.20;57.61;101667.44;5013866;28;20437;-58
2021/07/03 09:45:32;;;;;;;24.50;16.03;;;;;;;23.37;56.59;101663.16;5008065;28;20029;-58
2021/07/03 09:48:08;;;;;;;21.97;14.70;;;;;;;23.57;56.51;101665.03;5008172;28;20025;-58
2021/07/03 09:50:34;;;;;;;21.08;15.02;;;;;;;23.43;54.52;101659.00;5005492;28;20499;-58
2021/07/03 09:53:00;;;;;;;20.47;15.13;;;;;;;23.43;55.89;101660.84;5006704;28;20030;-58
2021/07/03 09:55:26;;;;;;;19.77;14.23;;;;;;;23.52;55.29;101663.63;5010672;28;20036;-58
2021/07/03 09:57:51;;;;;;;23.07;15.03;;;;;;;23.49;57.50;101663.00;5007037;28;20033;-59
2021/07/03 10:00:17;;;;;;;24.73;15.63;;;;;;;23.48;55.89;101659.44;5007222;28;20370;-58
2021/07/03 10:02:43;;;;;;;25.00;14.87;;;;;;;23.63;56.16;101656.28;5003223;28;20029;-59
2021/07/03 10:05:08;;;;;;;19.53;15.13;;;;;;;23.90;57.10;101660.16;5012973;28;20060;-60
2021/07/03 10:07:39;;;;;;;18.80;14.93;;;;;;;24.13;55.84;101660.69;5006871;28;20235;-58
2021/07/03 10:10:17;;;;;;;19.83;14.30;;;;;;;24.28;55.18;101648.31;5005419;28;20371;-59
2021/07/03 10:12:45;;;;;;;20.30;12.20;;;;;;;24.49;54.51;101649.97;5001546;28;20083;-58
2021/07/03 10:15:11;;;;;;;16.97;11.13;;;;;;;24.30;51.85;101645.44;5001859;28;20025;-58
2021/07/03 10:17:36;;;;;;;14.63;10.93;;;;;;;24.21;54.43;101640.91;5008950;28;20471;-58
2021/07/03 10:20:13;;;;;;;16.97;11.73;;;;;;;24.20;54.38;101639.19;5007458;28;20037;-58
2021/07/03 10:22:39;;;;;;;16.17;11.27;;;;;;;24.08;52.87;101641.22;5007821;28;20021;-58
2021/07/03 10:25:13;;;;;;;15.27;11.20;;;;;;;23.96;54.24;101638.63;5004284;28;20079;-57
2021/07/03 10:27:53;;;;;;;13.13;11.57;;;;;;;23.73;55.64;101631.75;5004272;28;20060;-59
2021/07/03 10:30:27;;;;;;;18.10;11.90;;;;;;;23.46;54.26;101630.63;5006984;28;20083;-59
2021/07/03 10:32:57;;;;;;;15.83;11.40;;;;;;;23.27;55.99;101631.47;5004288;28;20219;-59
2021/07/03 10:35:23;;;;;;;15.63;10.50;;;;;;;23.26;55.81;101629.75;5003686;28;20554;-58
2021/07/03 10:37:49;;;;;;;13.57;10.43;;;;;;;23.26;55.10;101610.69;5013418;28;20545;-59
2021/07/03 10:40:23;;;;;;;17.07;11.90;;;;;;;23.48;56.11;101620.47;5001803;28;20047;-58
2021/07/03 10:42:50;;;;;;;15.07;11.50;;;;;;;23.41;58.10;101617.44;5001351;28;20037;-59
2021/07/03 10:45:23;;;;;;;16.23;11.53;;;;;;;23.36;59.40;101608.84;5006489;28;20567;-58
2021/07/03 10:47:52;;;;;;;15.90;11.30;;;;;;;23.42;57.61;101608.28;5002774;28;20028;-58
2021/07/03 10:50:24;;;;;;;16.47;12.67;;;;;;;23.55;58.89;101602.53;5016476;28;20037;-59
2021/07/03 10:52:51;;;;;;;18.83;13.23;;;;;;;23.56;56.90;101598.81;5005115;28;20033;-59
2021/07/03 11:08:11;;;;;;;18.27;14.13;;;;;;;24.20;55.38;101571.03;5020879;27;20884;-46
2021/07/03 11:13:23;;;;;;;16.73;13.85;;;;;;;24.61;53.96;101572.41;5059840;27;20719;-49
2021/07/03 11:15:49;;;;;;;18.77;14.33;;;;;;;24.55;54.61;101572.13;5008862;28;20046;-54
2021/07/03 11:18:15;;;;;;;19.83;13.77;;;;;;;24.83;53.25;101569.44;5004766;28;20080;-52